createdAt,value
2022-11-23T00:01:27.217Z,96864.69
2022-11-23T00:04:32.083Z,96869.47
2022-11-23T00:07:38.304Z,96867.31
2022-11-23T00:10:42.358Z,96869.47
2022-11-23T00:13:47.328Z,96875.59
2022-11-23T00:16:51.258Z,96871.09
2022-11-23T00:19:56.148Z,96867.16
2022-11-23T00:23:01.849Z,96862.69
2022-11-23T00:26:07.073Z,96866.44
2022-11-23T00:29:11.195Z,96868.84
2022-11-23T00:32:17.353Z,96867.59
2022-11-23T00:35:21.358Z,96880.34
2022-11-23T00:38:27.373Z,96880.09
2022-11-23T00:41:31.464Z,96884.59
2022-11-23T00:44:35.846Z,96873.97
2022-11-23T00:47:40.929Z,96877.16
2022-11-23T00:50:45.149Z,96870.75
2022-11-23T00:53:51.813Z,96871.81
2022-11-23T00:56:55.915Z,96872.59
2022-11-23T01:00:02.051Z,96872.28
2022-11-23T01:03:07.112Z,96871.19
2022-11-23T01:06:13.384Z,96869.25
2022-11-23T01:09:21.899Z,96866.50
2022-11-23T01:12:25.955Z,96866.19
2022-11-23T01:15:30.393Z,96867.47
2022-11-23T01:18:34.876Z,96864.25
2022-11-23T01:21:40.333Z,96868.00
2022-11-23T01:24:47.516Z,96867.16
2022-11-23T01:27:51.549Z,96869.56
2022-11-23T01:30:56.047Z,96867.19
2022-11-23T01:34:01.961Z,96868.81
2022-11-23T01:37:06.526Z,96866.13
2022-11-23T01:40:14.445Z,96874.88
2022-11-23T01:43:20.023Z,96881.47
2022-11-23T01:46:24.616Z,96883.03
2022-11-23T01:49:31.478Z,96881.44
2022-11-23T01:52:36.121Z,96882.81
2022-11-23T01:55:43.079Z,96888.38
2022-11-23T01:58:50.211Z,96885.88
2022-11-23T02:01:55.199Z,96889.06
2022-11-23T02:05:02.474Z,96883.44
2022-11-23T02:08:08.024Z,96890.84
2022-11-23T02:11:16.230Z,96890.31
2022-11-23T02:14:23.525Z,96897.75
2022-11-23T02:17:28.189Z,96896.09
2022-11-23T02:20:33.777Z,96893.97
2022-11-23T02:23:54.048Z,96893.72
2022-11-23T02:26:59.159Z,96898.25
2022-11-23T02:30:03.409Z,96892.66
2022-11-23T02:33:07.080Z,96892.69
2022-11-23T02:36:35.479Z,96888.13
2022-11-23T02:39:41.596Z,96890.50
2022-11-23T02:42:46.560Z,96906.22
2022-11-23T02:45:52.510Z,96898.22
2022-11-23T02:48:55.120Z,96901.72
2022-11-23T02:51:57.826Z,96911.94
2022-11-23T02:55:00.487Z,96903.81
2022-11-23T02:58:05.822Z,96899.88
2022-11-23T03:01:08.753Z,96906.63
2022-11-23T03:04:11.574Z,96909.59
2022-11-23T03:07:14.224Z,96904.91
2022-11-23T03:10:17.323Z,96912.41
2022-11-23T03:13:21.505Z,96909.03
2022-11-23T03:16:24.179Z,96910.41
2022-11-23T03:19:26.825Z,96906.16
2022-11-23T03:22:29.488Z,96912.78
2022-11-23T03:25:32.164Z,96911.97
2022-11-23T03:28:36.283Z,96910.69
2022-11-23T03:31:38.957Z,96913.84
2022-11-23T03:34:41.655Z,96916.00
2022-11-23T03:37:44.296Z,96913.59
2022-11-23T03:40:46.972Z,96905.34
2022-11-23T03:43:51.036Z,96913.06
2022-11-23T03:46:53.782Z,96903.69
2022-11-23T03:49:56.484Z,96905.25
2022-11-23T03:53:00.091Z,96894.09
2022-11-23T03:56:02.817Z,96904.44
2022-11-23T03:59:06.964Z,96900.47
2022-11-23T04:02:09.696Z,96898.13
2022-11-23T04:05:12.450Z,96898.34
2022-11-23T04:08:15.140Z,96895.16
2022-11-23T04:11:17.789Z,96893.06
2022-11-23T04:14:21.861Z,96898.34
2022-11-23T04:17:24.533Z,96895.66
2022-11-23T04:20:27.777Z,96883.44
2022-11-23T04:23:30.451Z,96881.31
2022-11-23T04:26:33.212Z,96889.53
2022-11-23T04:29:37.224Z,96885.50
2022-11-23T04:32:39.920Z,96881.78
2022-11-23T04:35:42.579Z,96882.31
2022-11-23T04:38:45.224Z,96875.38
2022-11-23T04:41:47.876Z,96880.19
2022-11-23T04:44:51.858Z,96878.31
2022-11-23T04:47:54.527Z,96882.66
2022-11-23T04:50:57.331Z,96878.38
2022-11-23T04:53:59.993Z,96883.44
2022-11-23T04:57:02.680Z,96872.84
2022-11-23T05:00:08.080Z,96871.81
2022-11-23T05:03:12.858Z,96870.50
2022-11-23T05:06:18.021Z,96879.28
2022-11-23T05:09:23.017Z,96883.81
2022-11-23T05:12:27.678Z,96884.13
2022-11-23T05:15:33.941Z,96885.19
2022-11-23T05:18:38.024Z,96881.22
2022-11-23T05:21:42.548Z,96870.84
2022-11-23T05:24:48.178Z,96876.16
2022-11-23T05:27:52.447Z,96876.97
2022-11-23T05:30:57.965Z,96879.63
2022-11-23T05:34:01.917Z,96880.94
2022-11-23T05:37:05.780Z,96870.31
2022-11-23T05:40:11.197Z,96875.06
2022-11-23T05:43:15.604Z,96871.09
2022-11-23T05:46:21.309Z,96878.22
2022-11-23T05:49:25.600Z,96875.84
2022-11-23T05:52:29.799Z,96871.03
2022-11-23T05:55:34.488Z,96863.03
2022-11-23T05:58:38.413Z,96868.03
2022-11-23T06:01:44.103Z,96871.50
2022-11-23T06:04:48.378Z,96871.22
2022-11-23T06:07:54.925Z,96862.69
2022-11-23T06:11:02.369Z,96860.81
2022-11-23T06:14:09.968Z,96872.25
2022-11-23T06:17:18.981Z,96867.72
2022-11-23T06:20:23.198Z,96864.31
2022-11-23T06:23:27.350Z,96872.28
2022-11-23T06:26:31.862Z,96873.88
2022-11-23T06:29:35.974Z,96871.25
2022-11-23T06:32:41.671Z,96870.19
2022-11-23T06:35:54.302Z,96866.47
2022-11-23T06:38:59.402Z,96875.25
2022-11-23T06:42:23.694Z,96878.19
2022-11-23T06:45:30.707Z,96873.94
2022-11-23T06:48:36.938Z,96877.13
2022-11-23T06:51:43.330Z,96883.53
2022-11-23T06:54:48.199Z,96878.22
2022-11-23T06:57:54.125Z,96876.88
2022-11-23T07:01:02.507Z,96881.94
2022-11-23T07:04:09.415Z,96894.44
2022-11-23T07:07:14.395Z,96888.56
2022-11-23T07:10:19.380Z,96893.59
2022-11-23T07:13:23.499Z,96897.88
2022-11-23T07:16:27.768Z,96898.88
2022-11-23T07:19:34.648Z,96889.06
2022-11-23T07:22:39.456Z,96899.16
2022-11-23T07:25:44.188Z,96894.63
2022-11-23T07:28:48.340Z,96897.81
2022-11-23T07:31:53.051Z,96901.28
2022-11-23T07:34:59.940Z,96901.50
2022-11-23T07:38:04.841Z,96910.75
2022-11-23T07:41:10.475Z,96908.34
2022-11-23T07:44:17.958Z,96903.03
2022-11-23T07:47:22.613Z,96905.88
2022-11-23T07:50:29.834Z,96913.03
2022-11-23T07:53:36.552Z,96917.81
2022-11-23T07:56:41.092Z,96914.09
2022-11-23T07:59:45.445Z,96920.13
2022-11-23T08:03:19.492Z,96915.22
2022-11-23T08:06:18.841Z,96909.72
2022-11-23T08:09:24.522Z,96922.59
2022-11-23T08:12:29.493Z,96910.72
2022-11-23T08:15:35.603Z,96918.06
2022-11-23T08:18:40.126Z,96919.25
2022-11-23T08:21:46.224Z,96917.00
2022-11-23T08:24:50.708Z,96916.09
2022-11-23T08:27:57.867Z,96921.13
2022-11-23T08:31:08.213Z,96920.47
2022-11-23T08:34:12.550Z,96917.25
2022-11-23T08:37:18.703Z,96919.41
2022-11-23T08:40:25.588Z,96924.41
2022-11-23T08:43:30.730Z,96924.56
2022-11-23T08:46:35.463Z,96915.22
2022-11-23T08:49:43.039Z,96915.41
2022-11-23T08:52:48.890Z,96921.34
2022-11-23T08:55:54.275Z,96923.91
2022-11-23T08:58:59.021Z,96924.28
2022-11-23T09:02:04.321Z,96916.09
2022-11-23T09:05:09.915Z,96913.66
2022-11-23T09:08:16.861Z,96932.47
2022-11-23T09:11:21.359Z,96926.69
2022-11-23T09:14:27.703Z,96929.81
2022-11-23T09:17:34.376Z,96925.78
2022-11-23T09:20:38.820Z,96930.97
2022-11-23T09:23:44.588Z,96921.81
2022-11-23T09:26:49.184Z,96920.03
2022-11-23T09:29:53.609Z,96917.72
2022-11-23T09:32:58.435Z,96914.06
2022-11-23T09:36:04.497Z,96909.66
2022-11-23T09:39:10.875Z,96912.56
2022-11-23T09:42:41.165Z,96907.25
2022-11-23T09:45:51.523Z,96905.28
2022-11-23T09:49:15.687Z,96907.59
2022-11-23T09:52:24.116Z,96909.44
2022-11-23T09:55:39.989Z,96906.50
2022-11-23T09:58:44.515Z,96908.47
2022-11-23T10:01:49.995Z,96897.50
2022-11-23T10:04:55.643Z,96901.16
2022-11-23T10:08:08.460Z,96902.00
2022-11-23T10:11:37.122Z,96895.13
2022-11-23T10:14:56.921Z,96891.41
2022-11-23T10:18:16.824Z,96893.81
2022-11-23T10:21:30.214Z,96880.56
2022-11-23T10:24:41.462Z,96873.50
2022-11-23T10:27:50.433Z,96882.38
2022-11-23T10:31:03.697Z,96889.69
2022-11-23T10:34:14.076Z,96880.19
2022-11-23T10:37:20.103Z,96880.03
2022-11-23T10:40:28.746Z,96871.22
2022-11-23T10:43:40.128Z,96877.09
2022-11-23T10:46:45.763Z,96879.31
2022-11-23T10:49:59.991Z,96880.28
2022-11-23T10:53:22.764Z,96882.38
2022-11-23T10:56:28.155Z,96878.13
2022-11-23T10:59:38.796Z,96865.50
2022-11-23T11:02:45.720Z,96856.41
2022-11-23T11:06:08.474Z,96854.47
2022-11-23T11:09:22.182Z,96848.31
2022-11-23T11:12:27.596Z,96857.53
2022-11-23T11:15:38.865Z,96858.88
2022-11-23T11:18:52.102Z,96848.88
2022-11-23T11:21:57.349Z,96848.50
2022-11-23T11:25:02.723Z,96845.13
2022-11-23T11:28:26.782Z,96840.56
2022-11-23T11:31:49.635Z,96841.31
2022-11-23T11:34:58.970Z,96843.56
2022-11-23T11:38:11.832Z,96844.88
2022-11-23T11:41:19.908Z,96835.31
2022-11-23T11:44:28.338Z,96825.06
2022-11-23T11:47:38.971Z,96819.38
2022-11-23T11:50:49.996Z,96820.22
2022-11-23T11:54:02.636Z,96814.22
2022-11-23T11:57:12.163Z,96816.81
2022-11-23T12:00:20.395Z,96819.97
2022-11-23T12:03:37.253Z,96816.03
2022-11-23T12:06:48.173Z,96812.72
2022-11-23T12:09:59.064Z,96809.31
2022-11-23T12:13:03.705Z,96797.53
2022-11-23T12:16:19.111Z,96795.47
2022-11-23T12:19:33.761Z,96789.38
2022-11-23T12:22:50.064Z,96786.66
2022-11-23T12:26:10.355Z,96781.00
2022-11-23T12:29:48.721Z,96781.53
2022-11-23T12:33:04.849Z,96798.47
2022-11-23T12:36:36.824Z,96792.97
2022-11-23T12:40:17.017Z,96777.16
2022-11-23T12:43:26.087Z,96770.72
2022-11-23T12:46:40.983Z,96767.84
2022-11-23T12:49:52.625Z,96770.53
2022-11-23T12:53:09.130Z,96772.69
2022-11-23T12:56:27.203Z,96768.09
2022-11-23T12:59:45.274Z,96768.56
2022-11-23T13:03:22.756Z,96776.09
2022-11-23T13:07:20.353Z,96774.38
2022-11-23T13:10:42.657Z,96770.81
2022-11-23T13:13:59.612Z,96770.94
2022-11-23T13:17:20.252Z,96766.41
2022-11-23T13:20:48.263Z,96765.63
2022-11-23T13:23:53.191Z,96763.09
2022-11-23T13:27:31.815Z,96765.16
2022-11-23T13:34:29.168Z,96761.66
2022-11-23T13:38:09.594Z,96759.38
2022-11-23T13:41:57.982Z,96751.31
2022-11-23T13:45:26.392Z,96747.91
2022-11-23T13:49:01.105Z,96738.47
2022-11-23T13:52:08.782Z,96740.25
2022-11-23T13:55:31.487Z,96734.78
2022-11-23T13:58:40.992Z,96727.38
2022-11-23T14:02:04.775Z,96723.81
2022-11-23T14:05:56.836Z,96724.16
2022-11-23T14:09:09.155Z,96713.59
2022-11-23T14:12:28.411Z,96709.69
2022-11-23T14:15:36.298Z,96716.63
2022-11-23T14:19:03.282Z,96722.44
2022-11-23T14:22:23.465Z,96721.31
2022-11-23T14:25:42.135Z,96716.25
2022-11-23T14:29:01.014Z,96714.00
2022-11-23T14:32:29.828Z,96718.56
2022-11-23T14:35:42.459Z,96711.94
2022-11-23T14:39:03.612Z,96702.44
2022-11-23T14:42:14.943Z,96704.00
2022-11-23T14:45:23.354Z,96695.31
2022-11-23T14:48:30.966Z,96693.97
2022-11-23T14:51:36.645Z,96695.06
2022-11-23T14:54:41.462Z,96695.16
2022-11-23T14:57:49.358Z,96685.66
2022-11-23T15:00:55.729Z,96688.00
2022-11-23T15:04:00.816Z,96678.81
2022-11-23T15:07:10.231Z,96678.75
2022-11-23T15:10:31.093Z,96668.09
2022-11-23T15:13:48.413Z,96674.56
2022-11-23T15:16:54.783Z,96674.50
2022-11-23T15:19:59.946Z,96681.28
2022-11-23T15:23:04.864Z,96683.66
2022-11-23T15:26:34.698Z,96690.41
2022-11-23T15:29:41.157Z,96685.59
2022-11-23T15:32:46.911Z,96672.13
2022-11-23T15:35:53.401Z,96678.50
2022-11-23T15:38:59.008Z,96681.16
2022-11-23T15:42:04.420Z,96681.94
2022-11-23T15:45:23.932Z,96682.78
2022-11-23T15:48:32.757Z,96683.50
2022-11-23T15:51:41.317Z,96688.69
2022-11-23T15:54:46.260Z,96689.00
2022-11-23T15:57:53.898Z,96691.94
2022-11-23T16:01:07.031Z,96694.94
2022-11-23T16:04:28.056Z,96699.78
2022-11-23T16:07:32.816Z,96710.78
2022-11-23T16:10:37.223Z,96708.44
2022-11-23T16:13:42.357Z,96709.22
2022-11-23T16:16:48.936Z,96714.94
2022-11-23T16:19:56.354Z,96724.44
2022-11-23T16:23:02.294Z,96718.00
2022-11-23T16:26:08.245Z,96724.81
2022-11-23T16:29:23.658Z,96731.44
2022-11-23T16:32:30.612Z,96738.69
2022-11-23T16:35:36.815Z,96746.91
2022-11-23T16:38:41.199Z,96755.41
2022-11-23T16:41:46.462Z,96772.47
2022-11-23T16:44:52.131Z,96779.91
2022-11-23T16:48:00.515Z,96784.75
2022-11-23T16:51:08.102Z,96794.38
2022-11-23T16:54:14.042Z,96802.22
2022-11-23T16:57:27.861Z,96796.06
2022-11-23T17:00:34.216Z,96798.72
2022-11-23T17:03:41.410Z,96799.34
2022-11-23T17:06:49.216Z,96816.28
2022-11-23T17:09:54.040Z,96813.31
2022-11-23T17:12:59.296Z,96827.88
2022-11-23T17:16:03.977Z,96826.00
2022-11-23T17:19:11.843Z,96840.50
2022-11-23T17:22:17.836Z,96839.00
2022-11-23T17:25:22.134Z,96841.28
2022-11-23T17:28:28.215Z,96846.34
2022-11-23T17:31:33.055Z,96853.78
2022-11-23T17:34:37.763Z,96864.97
2022-11-23T17:37:44.003Z,96870.22
2022-11-23T17:40:48.274Z,96870.13
2022-11-23T17:43:53.166Z,96871.50
2022-11-23T17:47:01.537Z,96884.47
2022-11-23T17:50:08.850Z,96890.81
2022-11-23T17:53:14.727Z,96901.41
2022-11-23T17:56:20.170Z,96905.25
2022-11-23T17:59:25.681Z,96898.31
2022-11-23T18:02:29.945Z,96899.78
2022-11-23T18:05:34.432Z,96913.44
2022-11-23T18:08:40.499Z,96905.81
2022-11-23T18:11:44.881Z,96903.44
2022-11-23T18:14:49.178Z,96909.16
2022-11-23T18:17:53.265Z,96914.59
2022-11-23T18:20:59.029Z,96909.81
2022-11-23T18:24:05.095Z,96908.44
2022-11-23T18:27:09.614Z,96913.94
2022-11-23T18:30:14.038Z,96930.56
2022-11-23T18:33:18.140Z,96930.84
2022-11-23T18:36:22.589Z,96931.63
2022-11-23T18:39:30.061Z,96941.97
2022-11-23T18:42:34.280Z,96940.69
2022-11-23T18:45:39.013Z,96947.47
2022-11-23T18:48:43.884Z,96950.91
2022-11-23T18:51:47.231Z,96949.97
2022-11-23T18:54:51.405Z,96960.88
2022-11-23T18:57:54.934Z,96957.16
2022-11-23T19:00:58.316Z,96965.94
2022-11-23T19:04:01.877Z,96971.28
2022-11-23T19:07:04.972Z,96970.00
2022-11-23T19:10:10.319Z,96969.69
2022-11-23T19:13:14.049Z,96976.78
2022-11-23T19:16:20.949Z,96975.41
2022-11-23T19:19:24.013Z,96989.31
2022-11-23T19:22:27.527Z,96992.00
2022-11-23T19:25:31.916Z,96992.22
2022-11-23T19:28:37.731Z,96997.28
2022-11-23T19:31:41.006Z,97007.38
2022-11-23T19:34:43.989Z,97015.81
2022-11-23T19:37:47.371Z,97014.53
2022-11-23T19:40:56.756Z,97029.44
2022-11-23T19:44:01.164Z,97040.53
2022-11-23T19:47:10.110Z,97042.13
2022-11-23T19:50:18.062Z,97049.66
2022-11-23T19:53:20.986Z,97049.72
2022-11-23T19:56:28.848Z,97060.69
2022-11-23T19:59:32.264Z,97060.47
2022-11-23T20:02:35.397Z,97073.72
2022-11-23T20:05:38.573Z,97078.09
2022-11-23T20:08:41.425Z,97088.47
2022-11-23T20:11:50.380Z,97085.28
2022-11-23T20:14:54.276Z,97102.94
2022-11-23T20:17:57.824Z,97113.69
2022-11-23T20:21:01.952Z,97128.81
2022-11-23T20:24:06.630Z,97128.00
2022-11-23T20:27:11.105Z,97135.94
2022-11-23T20:30:14.200Z,97148.75
2022-11-23T20:33:20.219Z,97152.06
2022-11-23T20:36:26.142Z,97154.75
2022-11-23T20:39:29.469Z,97169.09
2022-11-23T20:42:33.667Z,97175.50
2022-11-23T20:45:37.567Z,97195.75
2022-11-23T20:48:41.434Z,97209.59
2022-11-23T20:51:46.414Z,97207.03
2022-11-23T20:54:49.256Z,97215.78
2022-11-23T20:57:54.597Z,97214.34
2022-11-23T21:00:57.408Z,97240.81
2022-11-23T21:04:00.612Z,97241.06
2022-11-23T21:07:03.466Z,97245.81
2022-11-23T21:10:06.961Z,97249.44
2022-11-23T21:13:37.201Z,97254.88
2022-11-23T21:16:55.172Z,97254.56
2022-11-23T21:19:57.914Z,97263.81
2022-11-23T21:23:00.693Z,97259.09
2022-11-23T21:26:05.754Z,97259.16
2022-11-23T21:29:11.373Z,97269.88
2022-11-23T21:32:15.096Z,97279.53
2022-11-23T21:35:17.942Z,97293.41
2022-11-23T21:38:23.448Z,97308.44
2022-11-23T21:41:26.286Z,97314.81
2022-11-23T21:44:30.405Z,97313.63
2022-11-23T21:47:33.858Z,97321.19
2022-11-23T21:50:36.566Z,97324.19
2022-11-23T21:53:40.014Z,97324.31
2022-11-23T21:56:43.516Z,97332.84
2022-11-23T21:59:47.870Z,97338.72
2022-11-23T22:02:53.486Z,97333.28
2022-11-23T22:05:57.200Z,97338.72
2022-11-23T22:09:00.745Z,97342.59
2022-11-23T22:12:04.167Z,97349.72
2022-11-23T22:32:06.291Z,97378.66
2022-11-23T22:35:11.010Z,97373.69
2022-11-23T22:38:14.075Z,97379.94
2022-11-23T22:41:18.724Z,97384.31
2022-11-23T22:44:21.625Z,97396.75
2022-11-23T22:47:27.172Z,97394.69
2022-11-23T22:50:33.934Z,97392.09
2022-11-23T22:53:44.466Z,97401.00
2022-11-23T22:56:47.708Z,97419.47
2022-11-23T22:59:53.117Z,97422.19
2022-11-23T23:02:56.489Z,97424.34
2022-11-23T23:06:42.663Z,97428.63
2022-11-23T23:09:49.361Z,97431.34
2022-11-23T23:12:52.794Z,97437.19
2022-11-23T23:16:18.603Z,97439.88
2022-11-23T23:19:22.110Z,97440.97
2022-11-23T23:22:26.441Z,97449.25
2022-11-23T23:25:29.207Z,97452.97
2022-11-23T23:28:32.218Z,97462.03
2022-11-23T23:31:37.555Z,97462.84
2022-11-23T23:34:40.416Z,97461.50
2022-11-23T23:37:44.615Z,97464.72
2022-11-23T23:40:47.422Z,97461.50
2022-11-23T23:43:50.233Z,97464.72
2022-11-23T23:46:52.986Z,97470.56
2022-11-23T23:49:55.754Z,97466.31
2022-11-23T23:53:00.178Z,97471.38
2022-11-23T23:56:05.675Z,97475.63
2022-11-23T23:59:08.612Z,97476.97
